Date,TemperatureHighF,TemperatureAvgF,TemperatureLowF,DewpointHighF,DewpointAvgF,DewpointLowF,HumidityHigh,HumidityAvg,HumidityLow,PressureMaxIn,PressureMinIn,WindSpeedMaxMPH,WindSpeedAvgMPH,GustSpeedMaxMPH,PrecipitationSumIn
2014-1-1,49.8,36.9,27.1,34.8,28.8,21.4,92,73,51,30.48,30.20,2,0,8,0.00
2014-1-2,38.3,33.8,30.9,35.5,32.2,29.5,97,94,87,30.18,29.68,4,0,4,0.05
2014-1-3,32.2,21.6,15.2,31.1,14.1,7.4,97,74,51,30.57,29.69,3,0,11,0.00
2014-1-4,36.2,23.7,14.0,21.3,16.4,10.2,87,74,53,30.60,30.32,4,0,7,0.07
2014-1-5,33.0,29.4,24.6,28.7,25.3,21.0,88,85,82,30.33,30.31,0,0,1,0.00
2014-1-6,47.1,36.1,11.6,47.1,28.2,-3.6,100,75,48,30.16,29.56,2,1,15,0.10
2014-1-7,21.0,12.9,6.2,1.1,-2.8,-7.4,57,49,40,30.52,30.17,1,0,13,0.00
2014-1-8,30.6,21.9,11.4,19.5,8.3,0.4,73,56,41,30.67,30.52,1,0,5,0.00
2014-1-9,39.2,32.2,26.9,26.1,23.6,19.9,81,71,57,30.71,30.54,0,0,4,0.00
2014-1-10,38.3,35.5,32.1,37.8,33.3,25.7,99,92,77,30.60,30.21,0,0,2,0.61
2014-1-11,38.8,38.2,37.4,38.5,37.9,37.2,99,99,99,30.19,29.94,0,0,2,0.13
2014-1-12,54.0,45.5,33.3,47.4,36.4,31.2,93,71,54,30.17,29.60,2,0,16,0.00
2014-1-13,60.5,44.6,29.3,44.5,37.0,28.3,98,77,54,30.17,29.93,2,0,10,0.00
2014-1-14,53.6,46.2,37.0,48.3,44.6,36.5,99,94,65,29.98,29.77,1,0,8,0.35
2014-1-15,47.2,42.0,37.8,45.8,39.2,32.6,100,91,68,30.04,29.93,5,0,8,0.00
2014-1-16,42.2,35.6,28.8,34.0,26.8,22.7,92,71,49,30.09,29.95,5,0,8,0.00
2014-1-17,34.2,32.0,28.5,30.3,28.7,26.5,92,87,85,30.02,29.98,0,0,3,0.00
2014-1-18,38.2,29.0,23.1,34.3,17.7,13.1,90,63,49,30.06,29.85,4,0,14,0.00
2014-1-19,51.0,36.4,23.5,32.1,24.1,14.1,83,61,48,30.03,29.80,5,0,8,0.00
2014-1-20,58.0,44.9,34.4,35.1,31.2,28.3,81,60,41,29.94,29.70,5,0,9,0.00
2014-1-21,36.9,28.3,15.9,30.4,24.5,9.4,94,86,70,29.96,29.80,5,0,11,0.00
2014-1-22,20.1,14.1,8.1,8.3,3.3,0.4,72,62,50,30.17,29.96,8,1,12,0.01
2014-1-23,29.4,17.7,7.6,15.1,6.8,2.6,87,63,46,30.50,30.17,4,0,11,0.01
2014-1-24,26.0,17.9,10.3,6.4,3.2,-0.1,62,53,39,30.61,30.16,3,0,8,0.00
2014-1-25,34.9,27.3,21.6,25.1,13.0,5.4,77,55,48,30.15,29.53,7,1,13,0.00
2014-1-26,35.0,27.3,16.3,19.1,14.2,9.3,77,59,43,29.99,29.71,5,0,8,0.00
2014-1-27,52.4,35.3,22.5,36.8,22.1,6.7,79,59,40,30.26,29.71,10,1,16,0.02
2014-1-28,22.3,17.0,13.2,9.5,1.2,-2.6,80,49,44,30.52,30.26,4,0,13,0.00
2014-1-29,27.4,18.1,12.3,10.2,6.0,-1.4,84,60,38,30.44,30.28,4,0,11,0.00
2014-1-30,35.6,23.1,11.6,15.0,10.1,6.7,85,59,38,30.53,30.25,3,0,5,0.00
2014-1-31,50.5,34.4,24.5,24.1,19.8,15.0,76,57,31,30.29,30.17,1,0,3,0.00
2014-2-1,53.7,37.4,26.0,33.3,26.5,22.2,87,67,39,30.36,30.05,3,0,9,0.00
2014-2-2,62.3,45.4,31.0,42.5,35.3,27.9,90,70,45,30.11,29.97,3,0,5,0.00
2014-2-3,49.2,38.8,33.7,42.5,36.7,30.2,98,92,70,30.40,30.05,4,1,9,1.52
2014-2-4,38.9,33.6,29.3,30.3,27.0,24.4,95,77,65,30.55,30.20,3,0,5,0.01
2014-2-5,40.8,35.1,31.6,37.2,32.8,24.3,98,92,67,30.21,29.76,7,0,17,0.17
2014-2-6,37.4,32.5,29.0,24.1,21.9,19.4,72,65,51,30.41,30.17,5,0,11,0.00
2014-2-7,44.3,34.2,25.0,28.7,24.5,21.7,89,68,53,30.41,30.30,4,0,5,0.00
2014-2-8,35.3,31.1,25.7,23.6,19.9,16.0,83,63,51,30.42,30.25,3,0,4,0.00
2014-2-9,35.5,31.4,24.5,30.4,25.3,20.5,92,78,67,30.27,30.05,3,0,6,0.00
2014-2-10,33.4,29.9,24.6,29.0,19.1,13.9,90,64,53,30.41,30.10,3,0,9,0.00
2014-2-11,35.0,26.9,19.7,16.8,14.0,12.5,76,59,47,30.54,30.40,6,0,10,0.00
2014-2-12,30.3,24.7,18.5,24.4,15.6,9.6,93,69,52,30.59,30.18,4,0,7,0.00
2014-2-13,37.3,33.4,25.4,36.8,32.5,23.7,98,97,89,30.18,29.35,6,1,13,0.54
2014-2-14,52.9,39.5,28.9,35.0,31.3,25.7,90,74,47,29.78,29.42,4,0,13,0.33
2014-2-15,38.5,35.9,30.2,33.9,30.0,18.8,94,79,62,30.00,29.67,3,0,16,0.10
2014-2-16,39.2,32.9,26.7,26.3,20.4,15.1,79,60,50,30.26,30.00,5,0,8,0.00
2014-2-17,37.2,31.0,23.9,24.3,17.7,14.8,81,58,42,30.51,30.27,3,0,8,0.00
2014-2-18,59.6,40.0,29.0,36.4,31.1,21.4,93,73,38,30.31,30.07,5,0,8,0.06
2014-2-19,63.7,46.3,31.2,53.9,38.6,28.9,97,77,41,30.19,29.75,7,0,11,0.12
2014-2-20,57.5,43.6,31.7,38.8,33.9,29.6,95,71,37,30.31,30.00,3,0,7,0.00
2014-2-21,69.0,47.7,36.2,62.9,44.3,35.2,98,88,76,30.03,29.68,6,0,11,0.02
2014-2-22,65.3,46.4,30.9,40.2,33.1,30.1,99,67,30,30.18,30.03,8,0,13,0.01
2014-2-23,66.0,52.4,42.4,39.5,35.6,32.5,74,54,37,30.08,29.91,8,0,8,0.00
2014-2-24,48.5,41.0,29.5,38.4,23.4,15.7,81,51,32,30.21,29.98,5,1,13,0.00
2014-2-25,37.9,31.3,27.2,31.4,24.5,17.8,91,76,52,30.20,30.06,2,0,3,0.10
2014-2-26,37.9,31.4,23.9,31.0,21.5,12.2,92,68,45,30.08,29.92,3,0,8,0.08
2014-2-27,42.9,30.4,20.6,23.6,15.4,6.2,79,55,35,30.21,29.74,7,1,15,0.00
2014-2-28,31.1,21.7,14.2,9.7,2.7,-1.3,58,44,30,30.50,30.21,4,0,13,0.00
2014-3-1,45.9,33.0,18.9,28.0,20.0,10.0,83,60,43,30.45,30.23,5,0,6,0.00
2014-3-2,51.9,41.0,33.0,39.3,34.1,27.7,96,77,54,30.24,30.02,5,0,7,0.24
2014-3-3,36.8,23.3,11.6,35.5,19.5,8.7,96,86,66,30.43,30.05,7,0,9,0.18
2014-3-4,33.5,20.9,9.3,18.4,11.8,7.0,91,70,38,30.49,30.30,2,0,5,0.16
2014-3-5,46.3,32.0,19.0,25.3,20.3,17.0,94,66,37,30.46,30.25,5,0,9,0.24
2014-3-6,35.6,30.9,25.1,24.8,20.2,14.6,76,64,54,30.64,30.43,4,1,10,0.01
2014-3-7,45.5,37.1,30.6,34.4,29.4,24.7,81,74,64,30.43,29.99,7,1,10,0.00
2014-3-8,67.1,46.4,28.6,45.0,36.4,26.2,93,71,43,30.03,29.92,4,0,8,0.00
2014-3-9,51.8,46.4,39.5,41.6,31.8,23.7,83,58,37,30.17,29.95,5,1,12,0.00
2014-3-10,61.5,46.6,38.9,40.2,33.0,26.1,73,60,39,30.08,29.72,4,0,8,0.00
2014-3-11,71.2,51.5,40.3,48.0,41.3,34.5,83,70,42,29.78,29.68,1,0,5,0.00
2014-3-12,67.2,51.2,35.1,59.8,44.2,23.8,91,78,59,29.69,29.10,9,1,16,0.10
2014-3-13,35.8,30.1,22.1,23.4,11.9,5.4,64,47,35,30.25,29.55,9,1,17,0.00
2014-3-14,59.0,43.8,24.5,31.6,23.3,13.3,69,46,32,30.30,29.94,7,1,11,0.00
2014-3-15,69.3,56.3,43.8,43.4,33.6,28.2,63,43,27,30.10,29.88,8,0,11,0.00
2014-3-16,46.1,40.5,29.9,32.0,29.4,25.7,95,66,45,30.24,30.09,5,0,7,0.00
2014-3-17,31.0,28.6,25.7,29.0,25.7,23.9,96,89,82,30.16,30.06,4,0,9,0.02
2014-3-18,42.4,36.6,29.9,31.7,27.6,22.4,81,70,63,30.29,30.13,4,1,7,0.35
2014-3-19,42.4,39.4,36.4,41.1,36.3,30.4,100,89,73,30.29,29.92,2,0,5,0.29
2014-3-20,61.0,50.4,41.6,46.7,37.3,29.6,100,66,34,30.07,29.88,6,1,11,0.00
2014-3-21,43.9,40.9,39.0,34.8,32.1,30.4,76,71,62,30.09,30.07,0,0,2,0.00
2014-3-22,71.9,53.1,38.6,45.7,39.7,36.5,93,65,28,30.08,29.87,1,0,8,0.00
2014-3-23,51.8,44.4,36.1,36.0,29.4,16.3,67,56,43,30.23,30.05,1,0,11,0.00
2014-3-24,42.7,33.3,24.7,20.9,15.5,12.0,63,48,35,30.39,30.21,1,0,11,0.00
2014-3-25,35.2,32.9,29.4,33.9,29.3,21.0,96,87,63,30.21,29.92,0,0,5,0.22
2014-3-26,39.1,32.8,28.7,30.8,20.4,14.0,94,62,39,30.38,29.95,3,1,19,0.06
2014-3-27,53.4,39.8,22.8,31.0,24.2,16.9,82,56,36,30.50,30.26,7,0,8,0.01
2014-3-28,66.9,56.7,43.2,56.2,48.1,30.4,94,73,55,30.25,30.05,7,1,12,0.06
2014-3-29,61.9,57.5,54.5,61.6,56.6,53.0,100,97,80,30.14,29.60,3,0,8,0.96
2014-3-30,54.6,43.2,35.3,54.3,42.1,34.3,100,96,82,29.86,29.55,6,1,13,0.99
2014-3-31,66.3,51.6,41.6,41.7,37.9,33.6,81,62,37,30.14,29.86,12,1,13,0.01
2014-4-1,68.2,53.0,38.0,45.3,39.7,33.8,87,63,41,30.24,30.01,3,0,6,0.00
2014-4-2,66.1,52.6,41.8,51.2,45.7,39.9,95,79,57,30.17,30.05,2,0,5,0.00
2014-4-3,68.3,58.5,51.5,54.5,50.1,45.0,97,75,54,30.16,29.99,3,0,9,0.00
2014-4-4,63.3,55.0,49.5,55.0,49.0,43.9,94,80,66,30.01,29.75,4,0,6,0.05
2014-4-5,59.5,52.3,44.4,50.4,40.5,32.2,98,67,45,30.22,29.75,10,1,13,0.01
2014-4-6,61.8,48.3,32.2,32.4,30.0,23.2,88,52,25,30.32,30.19,2,0,8,0.00
2014-4-7,52.7,47.2,41.3,52.4,43.0,32.1,100,86,55,30.24,29.68,3,0,5,0.39
2014-4-8,66.9,56.1,46.3,57.4,49.6,41.7,100,81,51,29.74,29.54,5,0,14,0.05
2014-4-9,68.3,54.5,39.7,45.6,40.2,35.1,95,62,37,30.11,29.74,4,0,10,0.00
2014-4-10,72.2,57.7,38.4,44.3,40.1,34.5,87,55,35,30.28,30.08,6,1,11,0.00
2014-4-11,81.9,68.6,60.6,57.2,48.8,43.2,84,51,33,30.12,29.94,5,0,11,0.00
2014-4-12,78.4,65.9,52.8,56.6,49.7,42.8,96,61,31,30.32,30.09,4,0,6,0.00
2014-4-13,85.0,69.5,51.9,62.9,57.6,50.0,96,69,46,30.20,30.01,7,1,14,0.00
2014-4-14,78.7,71.9,64.9,63.6,59.9,57.6,81,67,55,30.05,29.86,9,2,14,0.02
2014-4-15,70.0,56.9,36.6,68.1,54.8,30.8,100,93,76,30.11,29.59,8,1,21,1.45
2014-4-16,50.6,41.4,32.9,30.2,24.5,19.9,74,52,36,30.59,30.11,6,1,12,0.01
2014-4-17,56.7,44.9,33.4,40.6,35.2,29.2,92,70,52,30.71,30.59,3,0,9,0.00
2014-4-18,55.9,47.4,39.1,42.1,38.1,33.8,83,71,57,30.65,30.33,3,0,5,0.00
2014-4-19,69.8,55.7,43.1,48.0,41.2,32.6,93,63,31,30.36,30.25,5,0,7,0.00
2014-4-20,64.1,54.5,45.0,45.6,42.0,37.6,86,64,46,30.49,30.36,5,0,11,0.00
2014-4-21,71.3,55.0,37.5,47.7,40.5,33.9,88,61,37,30.36,29.94,5,0,7,0.00
2014-4-22,73.6,60.5,51.2,62.6,54.1,44.0,97,80,53,29.94,29.63,3,0,8,0.10
2014-4-23,60.0,54.7,48.8,53.8,41.3,36.6,82,61,53,30.05,29.71,10,1,18,0.00
2014-4-24,65.6,53.3,43.6,37.1,33.4,29.4,66,48,30,30.20,30.05,6,0,11,0.00
2014-4-25,70.1,55.2,43.5,53.7,45.7,36.9,98,73,47,30.08,29.77,5,0,6,0.40
2014-4-26,77.3,62.7,48.1,55.9,50.8,44.0,98,68,45,29.95,29.79,8,1,14,0.02
2014-4-27,68.1,58.7,49.1,50.8,41.2,37.3,65,53,40,30.13,29.93,6,1,9,0.00
2014-4-28,61.4,54.2,47.9,52.8,45.9,41.8,96,74,58,30.18,30.02,1,0,5,0.10
2014-4-29,50.3,49.3,48.1,50.0,48.6,46.7,99,98,94,30.26,30.13,1,0,7,1.12
2014-4-30,66.1,57.1,50.1,66.1,57.1,49.8,100,100,99,30.23,29.88,4,0,7,1.97
2014-5-1,79.9,68.4,59.0,67.2,61.1,48.7,100,80,55,29.91,29.74,6,0,10,0.23
2014-5-2,72.2,62.9,51.4,48.8,46.9,43.7,86,58,41,29.94,29.83,4,0,9,0.00
2014-5-3,74.6,63.6,52.9,53.0,49.1,45.5,86,61,39,29.94,29.78,5,0,9,0.00
2014-5-4,80.7,64.9,49.4,53.2,48.3,43.2,87,58,36,29.98,29.74,5,1,13,0.00
2014-5-5,65.7,56.8,47.1,51.2,42.3,35.5,97,60,41,30.11,29.93,4,0,9,0.25
2014-5-6,73.6,60.3,51.3,57.8,51.7,47.2,97,76,41,30.09,29.96,5,0,7,0.01
2014-5-7,65.4,57.2,50.0,58.2,51.7,45.9,95,83,56,30.31,30.09,2,0,4,0.15
2014-5-8,87.7,70.2,57.0,70.9,62.6,54.7,96,79,48,30.20,30.03,4,0,5,0.00
2014-5-9,77.1,67.9,61.0,68.6,64.0,59.6,96,88,74,30.18,29.99,3,0,5,0.00
2014-5-10,78.5,71.3,67.7,69.3,66.3,64.1,94,84,73,30.06,29.95,8,0,12,0.03
2014-5-11,81.6,70.1,58.5,64.7,58.4,54.3,100,70,42,30.19,30.01,5,0,8,0.01
2014-5-12,88.3,73.2,60.5,72.1,66.3,58.3,99,81,53,30.18,30.08,4,0,9,0.13
2014-5-13,90.8,76.3,66.1,75.0,69.6,62.4,100,82,57,30.23,30.09,3,0,5,0.00
2014-5-14,67.2,61.5,60.0,62.3,59.5,58.7,98,93,84,30.27,30.19,2,0,3,0.00
2014-5-15,82.0,72.4,66.3,72.7,69.0,66.0,100,90,72,30.18,29.96,1,0,13,0.40
2014-5-16,70.0,67.3,55.4,69.7,66.9,54.8,99,99,95,29.95,29.80,2,1,13,0.42
2014-5-17,66.9,59.6,49.8,53.7,48.2,45.8,91,67,47,30.21,30.00,1,0,9,0.00
2014-5-18,67.1,58.9,50.8,50.5,44.8,42.1,79,61,43,30.30,30.21,2,0,9,0.00
2014-5-19,73.6,59.6,43.9,51.8,45.5,41.8,94,63,36,30.35,30.21,5,0,8,0.00
2014-5-20,78.3,65.1,50.3,57.0,51.3,45.8,91,63,41,30.27,30.05,3,0,7,0.00
2014-5-21,78.1,68.3,59.0,68.8,62.9,56.7,98,84,65,30.05,29.94,3,0,4,0.08
2014-5-22,87.1,75.4,64.7,71.3,66.1,57.2,100,76,52,29.94,29.80,4,0,10,0.01
2014-5-23,79.3,68.8,57.7,58.8,54.4,48.9,82,61,47,30.08,29.93,5,1,10,0.00
2014-5-24,75.4,65.9,55.9,59.2,54.1,48.8,80,66,54,30.16,30.06,6,0,10,0.00
2014-5-25,82.3,69.3,55.2,59.3,56.3,52.9,94,66,41,30.22,30.13,3,0,5,0.00
2014-5-26,87.7,73.9,60.7,68.4,63.2,55.3,94,71,45,30.18,30.01,4,0,7,0.00
2014-5-27,91.0,75.4,64.8,74.2,68.4,63.8,100,81,53,30.02,29.88,5,0,14,0.79
2014-5-28,86.0,74.3,61.4,74.6,69.2,60.0,100,86,63,30.13,29.90,5,0,9,0.05
2014-5-29,61.2,58.2,57.2,60.0,57.4,56.1,99,97,94,30.25,30.13,2,0,4,0.25
2014-5-30,72.4,63.3,57.6,62.5,59.4,57.4,100,88,64,30.21,30.11,3,0,6,0.01
2014-5-31,78.7,67.2,56.1,59.1,55.6,51.1,97,70,40,30.32,30.15,8,1,10,0.00
2014-6-1,77.1,66.9,54.8,60.4,57.2,53.4,98,73,50,30.42,30.29,3,0,6,0.00
2014-6-2,81.5,69.5,54.8,65.3,59.0,52.3,92,71,56,30.34,30.11,5,0,9,0.00
2014-6-3,85.6,74.7,63.9,74.3,67.7,61.4,93,80,64,30.11,29.89,3,0,6,0.01
2014-6-4,88.4,76.6,65.8,70.9,67.5,64.2,100,76,47,29.92,29.74,4,0,6,0.58
2014-6-5,78.0,71.0,63.5,69.2,63.6,57.8,100,79,56,29.92,29.64,4,0,9,0.07
2014-6-6,79.2,68.9,56.9,61.0,57.4,52.0,92,68,51,30.04,29.90,6,0,10,0.00
2014-6-7,84.6,71.3,57.6,65.6,60.8,56.2,98,72,47,30.09,29.98,2,0,6,0.00
2014-6-8,84.2,73.2,62.4,70.2,65.5,60.6,96,78,58,30.03,29.87,4,0,8,0.10
2014-6-9,83.6,75.8,68.1,74.6,71.5,68.0,100,87,72,29.94,29.88,5,0,6,0.33
2014-6-10,85.0,77.8,72.5,77.5,74.6,71.9,100,90,71,29.98,29.90,2,0,6,1.16
2014-6-11,87.4,76.4,69.9,77.8,73.2,69.1,100,91,71,30.05,29.94,3,0,5,0.35
2014-6-12,78.9,73.0,69.4,75.6,71.9,69.4,100,97,86,30.03,29.88,2,0,6,0.12
2014-6-13,84.1,74.5,70.8,75.2,72.4,69.5,100,94,74,29.89,29.79,2,0,8,0.63
2014-7-7,92.0,82.1,72.1,73.5,69.8,65.6,81,67,54,30.00,29.85,2,0,10,0.00
2014-7-8,93.6,81.6,69.6,76.6,72.0,67.8,99,74,56,29.93,29.75,2,0,15,0.60
2014-7-9,87.2,75.4,70.8,76.4,72.6,68.7,100,92,67,30.02,29.87,1,0,8,0.07
2014-7-10,84.1,74.8,68.5,76.0,71.2,65.5,100,90,68,30.16,30.01,2,0,12,0.26
2014-7-11,86.5,76.1,66.1,74.1,70.5,66.1,100,84,64,30.25,30.16,0,0,4,0.01
2014-7-12,88.5,79.6,70.4,75.8,73.2,69.8,99,82,65,30.26,30.14,1,0,8,0.00
2014-7-13,92.2,84.0,73.9,78.7,75.3,71.6,95,76,62,30.16,29.94,7,0,10,0.02
2014-7-14,91.6,79.7,73.8,80.9,76.2,73.3,99,90,68,30.00,29.83,4,0,9,0.06
2014-7-15,88.9,77.1,71.3,79.2,74.8,70.8,100,93,69,29.88,29.76,3,0,5,0.33
2014-7-16,79.8,72.9,65.2,71.6,65.0,60.9,100,78,56,29.99,29.82,7,0,8,0.10
2014-7-17,81.6,72.1,64.0,65.1,61.4,58.5,87,70,53,30.18,29.98,3,0,7,0.05
2014-7-18,84.3,73.1,61.8,65.1,62.3,59.7,95,71,49,30.28,30.18,2,0,5,0.03
2014-7-19,82.8,74.8,69.0,68.0,65.1,61.0,90,73,51,30.25,30.17,4,0,4,0.02
2014-7-20,82.8,75.4,70.4,72.4,69.8,66.3,94,83,69,30.17,30.11,2,0,5,0.02
2014-7-21,84.3,76.9,70.8,73.5,70.8,68.2,93,82,70,30.24,30.16,2,0,5,0.02
2014-7-22,87.2,78.7,71.6,75.5,73.1,70.4,98,84,66,30.24,30.11,3,0,6,0.01
2014-7-23,93.5,82.4,72.9,80.2,75.1,71.3,98,80,61,30.11,29.84,3,0,8,0.03
2014-7-24,78.7,75.2,73.1,74.2,72.1,68.0,96,90,83,29.96,29.88,2,0,3,0.02
2014-7-25,84.8,72.4,60.1,65.8,61.8,57.8,93,71,48,30.12,29.99,1,0,7,0.00
2014-7-26,87.9,77.8,69.4,74.8,69.4,64.7,91,77,52,30.05,29.92,0,0,6,0.00
2014-7-27,84.9,77.8,70.6,76.4,73.8,69.4,98,88,74,29.93,29.67,5,0,8,0.07
2014-7-28,84.6,77.8,70.8,76.2,68.8,62.9,99,76,53,29.87,29.62,5,0,9,0.02
2014-7-29,76.0,69.1,62.3,63.0,57.5,53.0,82,67,51,30.07,29.86,4,0,9,0.00
2014-7-30,79.4,67.0,55.3,62.0,57.8,53.0,95,74,53,30.13,30.06,4,0,7,0.00
2014-7-31,86.5,74.9,62.3,70.0,65.6,60.6,97,74,55,30.17,30.11,3,0,8,0.00
2014-8-1,77.7,74.2,67.1,72.1,69.3,64.4,93,85,74,30.25,30.17,3,0,5,0.05
2014-8-2,80.4,72.0,64.8,71.7,68.1,63.7,99,88,72,30.22,30.11,2,0,4,0.12
2014-8-3,83.5,75.4,68.7,73.7,70.8,67.5,99,86,66,30.13,30.04,2,0,6,0.30
2014-8-4,87.6,75.5,66.5,73.0,69.6,66.5,100,84,55,30.16,30.08,3,0,7,0.06
2014-8-5,89.9,78.2,67.2,73.8,69.8,65.2,100,78,47,30.12,29.98,2,0,4,0.00
2014-8-6,82.2,74.4,66.3,71.0,68.9,66.0,100,84,64,30.02,29.94,3,0,10,0.09
2014-8-7,84.0,74.8,66.8,70.6,65.5,59.8,98,75,46,30.09,29.97,4,0,7,0.00
2014-8-8,82.3,73.0,62.5,66.3,63.1,60.8,96,73,54,30.18,30.09,2,0,5,0.00
2014-8-9,86.1,74.2,64.9,73.0,68.1,63.2,97,82,62,30.17,30.11,2,0,6,0.00
2014-8-10,86.3,76.0,66.5,70.4,68.4,65.6,99,79,58,30.19,30.11,3,0,5,0.00
2014-8-11,82.4,73.1,63.3,71.1,66.8,62.1,99,82,62,30.17,30.06,5,0,8,0.05
2014-8-12,74.4,71.9,69.0,74.4,71.5,68.4,100,99,93,30.06,29.80,3,0,6,0.76
2014-8-13,83.5,75.0,67.1,73.7,68.1,60.1,100,81,60,29.96,29.78,3,0,9,0.00
2014-8-14,83.1,70.7,58.2,67.2,60.3,56.5,96,72,51,30.01,29.89,4,0,8,0.00
2014-8-15,66.9,62.4,59.0,57.3,55.0,52.6,83,77,62,30.07,29.98,1,0,5,0.00
2014-8-16,84.0,71.7,59.5,62.5,59.6,56.0,93,68,43,30.08,29.98,0,0,5,0.00
2014-8-17,87.6,76.5,67.4,75.3,69.3,62.4,89,79,66,29.99,29.91,1,0,8,0.00
2014-8-18,82.3,75.8,67.6,71.5,68.3,65.2,93,78,66,29.98,29.84,0,0,5,0.00
2014-8-19,84.9,78.0,71.9,74.2,71.4,69.2,92,81,67,29.96,29.84,4,0,7,0.00
2014-8-20,87.1,74.5,67.5,72.6,68.9,65.6,99,84,55,30.06,29.96,3,0,6,0.21
2014-8-21,90.2,74.5,65.8,77.0,71.3,65.6,100,91,60,30.11,30.02,2,0,4,0.11
2014-8-22,82.5,74.7,68.3,76.3,72.6,68.3,100,93,80,30.05,29.99,2,0,3,0.02
2014-8-23,73.6,71.0,67.6,72.0,69.3,67.0,99,94,86,30.14,30.02,2,0,3,0.25
2014-8-24,78.7,71.2,64.5,67.5,65.2,61.6,98,82,59,30.20,30.13,1,0,5,0.00
2014-8-25,83.9,71.3,61.3,66.0,63.8,60.7,99,79,53,30.23,30.17,5,0,5,0.00
2014-8-26,87.9,73.5,61.2,71.2,65.9,60.6,99,79,54,30.22,30.12,2,0,4,0.00
2014-8-27,90.0,76.3,63.4,73.2,68.9,62.8,100,80,57,30.14,29.95,4,0,5,0.00
2014-8-28,83.8,77.6,68.3,73.2,67.4,58.9,89,72,55,30.13,29.92,7,0,10,0.00
2014-8-29,83.4,69.9,59.0,64.6,59.7,55.5,90,71,51,30.26,30.13,2,0,5,0.00
2014-8-30,70.2,68.3,66.9,65.6,65.0,64.3,93,89,84,30.27,30.25,0,0,3,0.00
2014-8-31,92.8,80.5,74.0,78.4,75.4,73.6,99,86,63,30.17,30.01,1,0,9,0.41
2014-9-1,91.3,81.9,73.7,80.3,77.0,73.7,100,86,66,30.08,29.98,2,0,6,0.01
2014-9-2,94.1,82.8,73.6,78.1,75.7,72.4,97,81,59,30.02,29.88,6,0,9,0.00
2014-9-3,86.8,79.0,71.8,76.8,72.4,67.1,96,81,62,30.17,29.95,0,0,4,0.00
2014-9-4,89.3,78.4,67.8,76.6,72.3,65.9,98,83,62,30.22,30.12,3,0,5,0.00
2014-9-5,92.6,81.7,72.2,79.0,75.8,71.6,99,83,63,30.21,30.06,3,0,7,0.00
2014-9-6,94.0,83.0,73.7,79.1,76.3,71.9,96,82,60,30.07,29.89,4,0,9,0.09
2014-9-7,80.5,73.1,67.5,73.1,63.4,57.2,100,74,46,30.21,30.01,1,0,9,0.00
2014-9-8,74.3,70.5,68.0,68.5,63.8,60.2,88,79,72,30.28,30.20,0,0,6,0.00
2014-9-9,76.3,71.6,67.6,70.1,67.1,64.4,91,86,79,30.24,30.13,0,0,7,0.00
2014-9-10,80.0,73.1,68.9,71.3,67.8,66.2,93,84,71,30.18,30.04,0,0,5,0.00
2014-9-11,88.8,78.2,69.9,77.0,72.2,67.3,96,83,67,30.05,29.89,1,0,7,0.00
2014-9-12,77.6,70.7,64.6,69.1,61.9,58.8,83,74,62,30.19,30.02,1,0,8,0.00
2014-9-13,70.0,64.9,59.0,67.4,61.2,57.9,98,88,75,30.27,30.15,3,0,8,0.22
2014-9-14,72.5,61.4,51.8,58.0,54.3,50.4,96,79,56,30.38,30.25,4,0,7,0.00
2014-9-15,77.0,63.8,54.4,62.4,57.5,53.0,98,82,54,30.30,30.08,2,0,4,0.00
2014-9-16,77.8,68.4,59.4,63.9,60.2,55.8,99,77,54,30.08,30.03,4,0,8,0.00
2014-9-17,76.6,64.7,54.3,60.6,56.7,52.9,97,77,53,30.12,30.00,2,0,4,0.00
2014-9-18,78.2,66.7,58.1,66.2,60.7,54.7,95,82,57,30.16,30.01,2,0,5,0.00
2014-9-19,77.5,66.4,58.6,63.4,60.1,55.1,99,81,58,30.35,30.15,1,0,3,0.00
2014-9-20,81.9,69.9,59.8,67.1,63.5,59.2,100,82,58,30.33,30.08,3,0,5,0.00
2014-9-21,86.0,72.4,59.3,69.8,64.7,58.7,100,79,55,30.09,29.68,3,0,6,0.00
2014-9-22,75.6,66.8,57.1,62.1,53.6,48.9,76,63,52,30.29,29.80,6,0,16,0.00
2014-9-23,72.7,59.5,49.1,54.7,49.6,45.4,88,71,49,30.44,30.28,4,0,6,0.00
2014-9-24,70.1,60.6,52.9,62.9,56.9,51.2,97,88,75,30.51,30.40,2,0,6,0.04
2014-9-25,64.1,61.3,60.0,62.0,60.8,59.7,100,98,93,30.39,30.31,4,0,8,0.40
2014-9-26,76.5,65.9,58.0,62.4,59.9,57.3,99,82,58,30.31,30.23,1,0,7,0.00
2014-9-27,83.4,70.2,54.6,64.2,60.7,54.0,99,74,49,30.30,30.21,3,0,5,0.00
2014-9-28,81.7,67.5,55.7,66.7,61.0,55.2,100,82,49,30.25,30.09,1,0,5,0.00
2014-9-29,71.7,67.0,61.4,67.1,64.8,60.8,100,93,84,30.09,29.97,1,0,2,0.00
2014-9-30,78.2,68.5,65.0,68.2,65.5,63.5,99,91,70,29.99,29.90,1,0,4,0.00
2014-10-1,75.6,67.2,61.3,67.2,64.2,60.2,99,91,75,30.11,29.98,1,0,4,0.04
2014-10-2,75.0,65.2,58.2,66.0,61.9,57.6,100,90,71,30.19,30.11,2,0,3,0.00
2014-10-3,70.6,66.3,61.2,67.5,63.9,59.6,99,92,86,30.16,29.75,4,0,6,0.07
2014-10-4,68.7,62.5,48.4,68.4,53.7,36.5,100,75,50,29.89,29.64,6,0,10,0.06
2014-10-5,65.0,51.8,40.5,46.4,42.2,38.2,93,72,48,30.04,29.89,2,0,7,0.00
2014-10-6,76.1,59.4,44.2,55.1,49.6,43.0,98,73,47,30.10,29.98,6,1,9,0.00
2014-10-7,73.9,64.6,60.0,62.4,59.1,54.5,97,83,66,30.11,29.94,4,0,7,0.15
2014-10-8,78.7,66.2,58.0,61.6,57.3,50.1,99,75,49,30.07,29.90,4,0,7,0.00
2014-10-9,73.1,61.6,48.6,57.2,51.6,46.6,94,72,50,30.19,30.06,4,0,6,0.00
2014-10-10,63.7,59.7,55.1,56.3,54.3,51.9,97,83,70,30.18,30.11,1,0,5,0.12
2014-10-11,57.9,54.5,52.9,56.5,54.0,52.6,100,98,94,30.23,30.05,2,0,5,0.37
2014-10-12,63.7,57.0,49.5,54.5,51.6,48.0,98,83,65,30.35,30.22,2,0,5,0.00
2014-10-13,66.0,62.0,59.0,65.7,60.9,54.5,100,96,85,30.34,30.24,0,0,2,0.10
2014-10-14,80.5,70.8,60.8,72.2,67.8,60.8,100,91,76,30.24,30.00,8,1,9,0.00
2014-10-15,77.4,70.3,60.3,73.3,68.9,60.3,100,96,87,30.00,29.80,4,0,7,1.65
2014-10-16,67.0,60.4,57.2,62.2,59.4,57.0,100,96,82,29.82,29.77,2,0,3,0.02
2014-10-17,74.0,62.5,52.1,59.8,56.8,51.8,100,83,58,29.88,29.73,6,0,8,0.01
2014-10-18,70.9,60.5,52.2,57.0,52.0,44.6,98,75,53,29.93,29.68,9,0,9,0.00
2014-10-19,60.7,52.7,45.0,45.8,41.8,38.0,87,67,49,30.18,29.92,3,0,10,0.00
2014-10-20,68.4,54.2,40.6,53.3,47.0,39.3,100,78,57,30.19,29.99,8,0,11,0.01
2014-10-21,70.0,57.6,49.0,59.2,53.8,48.2,99,88,58,29.99,29.85,2,0,5,0.41
2014-10-22,55.1,53.4,52.5,53.9,52.2,47.5,100,96,80,30.01,29.91,6,0,10,0.86
2014-10-23,63.5,54.8,52.3,52.0,47.9,46.4,81,78,66,29.98,29.92,9,1,10,0.00
2014-10-24,67.9,59.5,53.5,49.9,47.1,42.1,79,64,47,30.04,29.94,1,0,12,0.00
2014-10-25,73.6,57.7,43.6,53.7,48.0,41.7,97,72,46,30.02,29.76,1,0,6,0.00
2014-10-26,70.5,59.5,47.4,49.7,43.7,39.2,87,58,34,29.99,29.74,4,0,10,0.00
2014-10-27,71.7,54.2,39.9,48.8,43.0,37.6,94,69,37,30.16,29.99,2,0,4,0.00
2014-10-28,81.4,66.6,53.6,63.2,55.4,46.4,79,68,52,30.10,29.98,4,0,7,0.00
2014-10-29,68.7,59.2,49.0,61.9,56.0,48.2,99,89,67,30.05,29.95,10,0,10,0.03
2014-10-30,61.5,52.7,44.0,48.0,44.3,41.8,98,74,54,30.13,30.04,3,0,8,0.00
2014-10-31,56.7,47.7,40.4,45.5,41.5,39.1,98,80,57,30.10,29.89,1,0,5,0.00
2014-11-1,51.8,49.4,46.0,45.7,42.6,36.9,84,78,66,29.97,29.81,6,0,12,0.00
2014-11-2,51.4,46.6,43.1,36.8,32.0,27.0,72,57,44,30.29,29.96,9,1,16,0.00
2014-11-3,64.2,50.5,42.4,37.6,32.2,27.0,80,51,28,30.39,30.27,3,0,10,0.00
2014-11-4,67.2,54.4,42.1,50.7,44.0,37.4,89,69,46,30.29,30.12,1,0,5,0.00
2014-11-5,64.4,57.4,49.2,55.3,49.5,43.0,97,76,56,30.25,30.13,0,0,3,0.01
2014-11-6,65.2,55.8,51.2,60.2,54.4,46.0,99,95,82,30.18,29.71,3,0,6,0.52
2014-11-7,56.0,49.2,39.6,46.2,37.9,29.8,86,66,51,30.14,29.77,3,0,18,0.01
2014-11-8,53.9,43.2,32.3,39.8,33.7,29.2,91,70,51,30.16,29.98,3,0,9,0.00
2014-11-9,59.0,48.2,39.2,44.9,41.1,37.3,95,78,56,30.11,29.97,3,0,5,0.00
2014-11-10,65.0,48.5,37.5,49.2,42.3,36.5,98,81,52,30.22,30.10,3,0,6,0.00
2014-11-11,71.0,55.4,39.7,63.5,51.9,38.7,99,89,70,30.16,29.94,1,0,5,0.00
2014-11-12,65.0,57.9,44.2,61.5,49.4,34.3,100,76,48,30.19,29.90,5,0,10,0.00
2014-11-13,46.5,42.2,38.0,37.1,33.6,31.7,94,72,60,30.22,30.11,3,0,5,0.03
2014-11-14,42.3,37.2,30.5,37.1,25.5,21.4,94,63,49,30.35,30.13,4,0,9,0.00
2014-11-15,44.9,35.7,30.4,28.2,24.6,21.7,84,65,47,30.50,30.36,3,0,7,0.01
2014-11-16,46.8,41.1,32.0,41.0,32.2,27.7,92,71,52,30.43,30.08,2,0,5,0.01
2014-11-17,48.6,44.6,40.5,48.3,41.7,29.7,99,90,65,30.08,29.60,7,0,17,0.69
2014-11-18,40.5,30.1,23.6,29.5,13.4,9.1,65,50,39,30.33,29.84,8,0,14,0.00
2014-11-19,38.2,30.0,19.1,22.6,15.6,9.9,78,56,44,30.42,30.11,3,0,8,0.00
2014-11-20,55.3,42.1,34.1,33.3,25.6,17.8,63,52,43,30.17,29.94,5,0,7,0.00
2014-11-21,36.3,33.5,31.4,18.8,17.4,16.3,57,51,45,30.36,30.17,3,1,12,0.00
2014-11-22,50.5,38.5,21.8,27.0,24.0,18.5,90,58,38,30.62,30.31,3,0,10,0.00
2014-11-23,57.2,48.2,36.5,54.2,35.5,25.3,98,63,47,30.31,29.84,2,0,5,0.13
2014-11-24,73.5,66.3,54.9,63.9,61.0,54.3,100,84,63,29.83,29.65,6,1,11,0.16
2014-11-25,66.2,55.1,46.7,62.5,45.2,39.7,97,70,54,30.21,29.82,3,0,6,0.00
2014-11-26,48.5,40.0,34.4,44.4,38.4,33.4,98,94,80,30.22,29.95,6,0,7,1.10
2014-11-27,47.0,38.5,34.4,40.1,34.8,30.7,99,87,58,30.24,30.06,3,0,7,0.00
2014-11-28,40.1,34.6,28.2,30.7,26.1,23.7,87,71,57,30.37,30.24,6,0,10,0.00
2014-11-29,48.1,40.0,28.6,35.2,30.7,25.0,88,70,54,30.39,30.22,3,0,5,0.00
2014-11-30,66.4,52.9,39.5,50.7,43.0,33.3,82,69,56,30.22,30.09,4,0,6,0.00
2014-12-1,71.2,55.8,44.9,60.5,49.3,37.3,96,80,63,30.52,30.18,4,0,9,0.05
2014-12-2,44.7,38.2,35.6,37.9,36.2,34.1,98,93,73,30.64,30.37,3,0,6,0.01
2014-12-3,52.1,44.2,38.1,50.4,41.7,32.6,99,92,59,30.37,30.09,3,0,8,0.00
2014-12-4,45.8,40.4,31.5,35.7,32.9,29.7,94,75,61,30.55,30.37,4,0,5,0.00
2014-12-5,42.7,41.4,40.3,41.1,37.0,33.8,94,84,76,30.59,30.39,0,0,4,0.00
2014-12-6,50.5,46.1,42.2,50.2,44.8,40.9,99,95,89,30.39,30.08,4,0,10,0.01
2014-12-7,49.2,41.8,36.4,40.6,29.9,23.0,94,64,42,30.61,30.30,7,1,13,0.00
2014-12-8,37.3,35.3,33.2,32.9,26.3,20.7,94,70,56,30.65,30.29,5,0,8,0.00
2014-12-9,44.9,38.4,33.2,40.4,36.7,32.2,97,94,80,30.27,29.91,5,0,9,0.01
2014-12-10,49.7,43.4,37.9,38.4,35.0,28.6,82,72,63,29.93,29.86,8,1,14,0.00
2014-12-11,42.8,39.1,34.7,28.8,24.6,17.3,69,57,38,30.07,29.91,5,0,9,0.00
2014-12-12,45.1,40.1,32.3,31.1,26.9,17.2,79,60,38,30.18,30.07,5,0,11,0.00
2014-12-13,48.1,36.6,27.4,36.4,30.5,24.9,93,79,64,30.19,30.05,2,0,7,0.00
2014-12-14,54.0,42.8,29.7,43.5,37.0,28.2,95,81,67,30.09,30.00,2,0,9,0.00
2014-12-15,57.9,45.7,37.3,47.1,41.4,35.6,95,86,67,30.16,30.08,1,0,4,0.00
2014-12-16,46.9,41.9,33.2,46.5,41.2,32.4,100,97,92,30.12,29.92,1,0,3,0.01
2014-12-17,55.2,45.1,36.4,45.6,37.8,29.0,100,77,57,30.12,29.95,7,0,10,0.00
2014-12-18,40.5,37.7,34.4,28.9,27.2,24.6,70,66,61,30.25,30.12,5,0,12,0.00
2014-12-19,40.5,36.2,30.6,29.8,27.7,25.2,81,71,64,30.32,30.17,7,0,12,0.00
2014-12-20,38.7,32.6,25.2,28.1,25.8,22.7,91,76,64,30.39,30.29,1,0,4,0.00
2014-12-21,43.9,35.4,29.1,31.7,29.0,26.1,91,78,61,30.42,30.32,2,0,4,0.00
2014-12-22,38.0,34.7,28.4,37.5,32.2,26.1,98,91,80,30.39,30.12,3,0,4,0.08
2014-12-23,46.9,42.5,36.9,46.4,42.1,36.4,99,99,98,30.13,30.07,2,0,3,0.00
2014-12-24,56.3,49.5,45.3,56.3,49.5,45.0,100,100,99,30.08,29.60,1,0,4,0.00
2014-12-25,59.0,50.3,43.2,59.0,42.7,34.6,100,77,55,30.29,29.61,7,0,12,0.00
2014-12-26,53.5,41.1,30.9,40.0,34.9,29.4,96,80,59,30.41,30.26,3,0,6,0.00
2014-12-27,59.0,42.6,31.9,44.5,37.2,30.9,98,83,48,30.35,30.12,0,0,3,0.00
2014-12-28,58.8,50.0,40.0,51.0,45.7,37.6,98,85,66,30.17,29.98,1,0,4,0.09
2014-12-29,45.9,42.7,40.8,44.3,35.6,30.6,96,76,64,30.32,30.16,2,0,4,0.06
2014-12-30,43.1,36.8,26.5,30.5,25.2,21.2,81,63,46,30.49,30.31,3,0,7,0.01
2014-12-31,38.6,30.1,23.9,21.7,19.7,16.0,89,67,42,30.51,30.30,3,0,11,0.00
2015-1-1,45.0,33.0,23.0,27.5,23.0,18.2,92,68,44,30.31,30.12,3,0,10,0.00
2015-1-2,47.4,36.1,30.4,31.1,28.6,26.7,87,75,51,30.49,30.15,1,0,3,0.00